sensor_id;sensor_type;location;lat;lon;timestamp;P1;durP1;ratioP1;P2;durP2;ratioP2
69463;SDS011;56665;41.106;16.688;2023-05-07T00:02:21;11.75;;;5.38;;
69463;SDS011;56665;41.106;16.688;2023-05-07T00:05:25;8.77;;;5.40;;
69463;SDS011;56665;41.106;16.688;2023-05-07T00:08:29;8.52;;;4.68;;
69463;SDS011;56665;41.106;16.688;2023-05-07T00:11:33;8.23;;;4.50;;
69463;SDS011;56665;41.106;16.688;2023-05-07T00:14:37;8.33;;;4.23;;
69463;SDS011;56665;41.106;16.688;2023-05-07T00:17:41;8.45;;;3.90;;
69463;SDS011;56665;41.106;16.688;2023-05-07T00:20:45;6.85;;;3.90;;
69463;SDS011;56665;41.106;16.688;2023-05-07T00:23:49;5.95;;;3.80;;
69463;SDS011;56665;41.106;16.688;2023-05-07T00:26:54;6.18;;;3.80;;
69463;SDS011;56665;41.106;16.688;2023-05-07T00:29:58;5.67;;;3.60;;
69463;SDS011;56665;41.106;16.688;2023-05-07T00:33:02;6.65;;;3.63;;
69463;SDS011;56665;41.106;16.688;2023-05-07T00:36:08;8.05;;;4.13;;
69463;SDS011;56665;41.106;16.688;2023-05-07T00:39:12;6.95;;;3.88;;
69463;SDS011;56665;41.106;16.688;2023-05-07T00:42:18;8.35;;;3.58;;
69463;SDS011;56665;41.106;16.688;2023-05-07T00:45:22;6.53;;;3.90;;
69463;SDS011;56665;41.106;16.688;2023-05-07T00:48:29;7.00;;;3.53;;
69463;SDS011;56665;41.106;16.688;2023-05-07T00:51:34;6.03;;;3.60;;
69463;SDS011;56665;41.106;16.688;2023-05-07T00:54:40;6.75;;;3.60;;
69463;SDS011;56665;41.106;16.688;2023-05-07T00:57:45;6.18;;;3.80;;
69463;SDS011;56665;41.106;16.688;2023-05-07T01:00:49;6.50;;;4.23;;
69463;SDS011;56665;41.106;16.688;2023-05-07T01:03:54;7.43;;;4.50;;
69463;SDS011;56665;41.106;16.688;2023-05-07T01:06:58;6.80;;;4.15;;
69463;SDS011;56665;41.106;16.688;2023-05-07T01:10:04;6.32;;;3.83;;
69463;SDS011;56665;41.106;16.688;2023-05-07T01:13:10;7.25;;;4.20;;
69463;SDS011;56665;41.106;16.688;2023-05-07T01:16:17;6.10;;;3.83;;
69463;SDS011;56665;41.106;16.688;2023-05-07T01:19:21;6.93;;;4.05;;
69463;SDS011;56665;41.106;16.688;2023-05-07T01:22:35;7.50;;;4.55;;
69463;SDS011;56665;41.106;16.688;2023-05-07T01:25:43;6.53;;;4.05;;
69463;SDS011;56665;41.106;16.688;2023-05-07T01:28:53;6.82;;;4.20;;
69463;SDS011;56665;41.106;16.688;2023-05-07T01:31:57;7.20;;;4.23;;
69463;SDS011;56665;41.106;16.688;2023-05-07T01:35:05;7.15;;;4.30;;
69463;SDS011;56665;41.106;16.688;2023-05-07T01:38:13;6.97;;;4.45;;
69463;SDS011;56665;41.106;16.688;2023-05-07T01:41:16;6.38;;;4.10;;
69463;SDS011;56665;41.106;16.688;2023-05-07T01:44:21;7.82;;;3.95;;
69463;SDS011;56665;41.106;16.688;2023-05-07T01:47:27;6.40;;;4.10;;
69463;SDS011;56665;41.106;16.688;2023-05-07T01:50:33;6.22;;;4.22;;
69463;SDS011;56665;41.106;16.688;2023-05-07T01:53:38;6.32;;;4.30;;
69463;SDS011;56665;41.106;16.688;2023-05-07T01:56:43;7.38;;;4.15;;
69463;SDS011;56665;41.106;16.688;2023-05-07T01:59:48;7.43;;;3.97;;
69463;SDS011;56665;41.106;16.688;2023-05-07T02:02:52;6.10;;;3.90;;
69463;SDS011;56665;41.106;16.688;2023-05-07T02:06:12;6.38;;;3.90;;
69463;SDS011;56665;41.106;16.688;2023-05-07T02:09:16;6.50;;;4.03;;
69463;SDS011;56665;41.106;16.688;2023-05-07T02:12:22;6.68;;;3.90;;
69463;SDS011;56665;41.106;16.688;2023-05-07T02:15:27;6.28;;;3.97;;
69463;SDS011;56665;41.106;16.688;2023-05-07T02:18:31;5.33;;;3.33;;
69463;SDS011;56665;41.106;16.688;2023-05-07T02:21:36;6.25;;;4.03;;
69463;SDS011;56665;41.106;16.688;2023-05-07T02:24:39;5.45;;;4.00;;
69463;SDS011;56665;41.106;16.688;2023-05-07T02:27:43;7.53;;;3.95;;
69463;SDS011;56665;41.106;16.688;2023-05-07T02:30:47;7.45;;;3.80;;
69463;SDS011;56665;41.106;16.688;2023-05-07T02:33:51;6.93;;;3.90;;
69463;SDS011;56665;41.106;16.688;2023-05-07T02:36:57;5.72;;;3.80;;
69463;SDS011;56665;41.106;16.688;2023-05-07T02:40:03;5.97;;;3.80;;
69463;SDS011;56665;41.106;16.688;2023-05-07T02:43:08;4.93;;;3.17;;
69463;SDS011;56665;41.106;16.688;2023-05-07T02:46:12;5.65;;;3.75;;
69463;SDS011;56665;41.106;16.688;2023-05-07T02:49:20;6.20;;;3.47;;
69463;SDS011;56665;41.106;16.688;2023-05-07T02:52:25;6.78;;;3.80;;
69463;SDS011;56665;41.106;16.688;2023-05-07T02:55:30;5.63;;;3.47;;
69463;SDS011;56665;41.106;16.688;2023-05-07T02:58:34;5.35;;;3.40;;
69463;SDS011;56665;41.106;16.688;2023-05-07T03:01:39;5.28;;;3.30;;
69463;SDS011;56665;41.106;16.688;2023-05-07T03:04:44;4.40;;;3.10;;
69463;SDS011;56665;41.106;16.688;2023-05-07T03:07:48;7.22;;;3.38;;
69463;SDS011;56665;41.106;16.688;2023-05-07T03:10:53;13.07;;;5.95;;
69463;SDS011;56665;41.106;16.688;2023-05-07T03:13:57;21.05;;;10.40;;
69463;SDS011;56665;41.106;16.688;2023-05-07T03:17:00;25.35;;;11.63;;
69463;SDS011;56665;41.106;16.688;2023-05-07T03:20:04;25.70;;;12.40;;
69463;SDS011;56665;41.106;16.688;2023-05-07T03:23:11;29.83;;;14.63;;
69463;SDS011;56665;41.106;16.688;2023-05-07T03:26:16;34.28;;;16.02;;
69463;SDS011;56665;41.106;16.688;2023-05-07T03:29:21;37.38;;;17.00;;
69463;SDS011;56665;41.106;16.688;2023-05-07T03:32:28;41.13;;;18.63;;
69463;SDS011;56665;41.106;16.688;2023-05-07T03:35:32;42.30;;;19.07;;
69463;SDS011;56665;41.106;16.688;2023-05-07T03:38:39;48.53;;;21.33;;
69463;SDS011;56665;41.106;16.688;2023-05-07T03:41:44;52.05;;;23.27;;
69463;SDS011;56665;41.106;16.688;2023-05-07T03:44:48;59.40;;;28.27;;
69463;SDS011;56665;41.106;16.688;2023-05-07T03:47:52;86.82;;;42.78;;
69463;SDS011;56665;41.106;16.688;2023-05-07T03:50:58;93.40;;;46.63;;
69463;SDS011;56665;41.106;16.688;2023-05-07T03:54:07;78.85;;;37.85;;
69463;SDS011;56665;41.106;16.688;2023-05-07T03:57:15;54.60;;;27.33;;
69463;SDS011;56665;41.106;16.688;2023-05-07T04:00:19;40.67;;;21.23;;
69463;SDS011;56665;41.106;16.688;2023-05-07T04:03:26;35.05;;;18.67;;
69463;SDS011;56665;41.106;16.688;2023-05-07T04:06:30;41.83;;;20.90;;
69463;SDS011;56665;41.106;16.688;2023-05-07T04:09:35;37.25;;;18.52;;
69463;SDS011;56665;41.106;16.688;2023-05-07T04:12:42;29.40;;;16.92;;
69463;SDS011;56665;41.106;16.688;2023-05-07T04:15:47;45.47;;;22.50;;
69463;SDS011;56665;41.106;16.688;2023-05-07T04:18:54;59.92;;;28.60;;
69463;SDS011;56665;41.106;16.688;2023-05-07T04:21:58;70.33;;;34.03;;
69463;SDS011;56665;41.106;16.688;2023-05-07T04:25:02;71.43;;;33.53;;
69463;SDS011;56665;41.106;16.688;2023-05-07T04:28:06;61.70;;;30.75;;
69463;SDS011;56665;41.106;16.688;2023-05-07T04:31:11;58.00;;;29.23;;
69463;SDS011;56665;41.106;16.688;2023-05-07T04:34:17;52.38;;;27.83;;
69463;SDS011;56665;41.106;16.688;2023-05-07T04:37:23;57.83;;;26.50;;
69463;SDS011;56665;41.106;16.688;2023-05-07T04:40:26;42.13;;;22.17;;
69463;SDS011;56665;41.106;16.688;2023-05-07T04:43:31;31.40;;;16.48;;
69463;SDS011;56665;41.106;16.688;2023-05-07T04:46:37;24.42;;;13.60;;
69463;SDS011;56665;41.106;16.688;2023-05-07T04:49:42;21.58;;;11.88;;
69463;SDS011;56665;41.106;16.688;2023-05-07T04:52:49;15.67;;;9.03;;
69463;SDS011;56665;41.106;16.688;2023-05-07T04:55:55;16.58;;;9.88;;
69463;SDS011;56665;41.106;16.688;2023-05-07T04:59:09;19.48;;;10.32;;
69463;SDS011;56665;41.106;16.688;2023-05-07T05:02:14;20.92;;;10.77;;
69463;SDS011;56665;41.106;16.688;2023-05-07T05:05:18;16.58;;;9.88;;
69463;SDS011;56665;41.106;16.688;2023-05-07T05:08:26;16.33;;;10.00;;
69463;SDS011;56665;41.106;16.688;2023-05-07T05:11:30;13.65;;;8.90;;
69463;SDS011;56665;41.106;16.688;2023-05-07T05:14:34;15.30;;;8.75;;
69463;SDS011;56665;41.106;16.688;2023-05-07T05:17:38;13.30;;;9.32;;
69463;SDS011;56665;41.106;16.688;2023-05-07T05:20:44;17.10;;;11.40;;
69463;SDS011;56665;41.106;16.688;2023-05-07T05:23:48;18.50;;;12.87;;
69463;SDS011;56665;41.106;16.688;2023-05-07T05:26:56;20.90;;;13.95;;
69463;SDS011;56665;41.106;16.688;2023-05-07T05:30:01;22.48;;;14.90;;
69463;SDS011;56665;41.106;16.688;2023-05-07T05:33:08;23.48;;;16.10;;
69463;SDS011;56665;41.106;16.688;2023-05-07T05:36:13;23.42;;;15.50;;
69463;SDS011;56665;41.106;16.688;2023-05-07T05:39:19;22.87;;;15.67;;
69463;SDS011;56665;41.106;16.688;2023-05-07T05:42:25;20.92;;;14.55;;
69463;SDS011;56665;41.106;16.688;2023-05-07T05:45:29;21.85;;;14.32;;
69463;SDS011;56665;41.106;16.688;2023-05-07T05:48:33;24.35;;;14.55;;
69463;SDS011;56665;41.106;16.688;2023-05-07T05:51:38;26.00;;;17.58;;
69463;SDS011;56665;41.106;16.688;2023-05-07T05:54:42;31.73;;;20.20;;
69463;SDS011;56665;41.106;16.688;2023-05-07T05:57:48;32.58;;;21.50;;
69463;SDS011;56665;41.106;16.688;2023-05-07T06:00:52;29.60;;;19.55;;
69463;SDS011;56665;41.106;16.688;2023-05-07T06:03:58;22.00;;;14.18;;
69463;SDS011;56665;41.106;16.688;2023-05-07T06:07:02;19.98;;;14.07;;
69463;SDS011;56665;41.106;16.688;2023-05-07T06:10:06;19.13;;;12.53;;
69463;SDS011;56665;41.106;16.688;2023-05-07T06:13:10;17.45;;;11.82;;
69463;SDS011;56665;41.106;16.688;2023-05-07T06:16:16;17.30;;;11.90;;
69463;SDS011;56665;41.106;16.688;2023-05-07T06:19:21;15.30;;;11.07;;
69463;SDS011;56665;41.106;16.688;2023-05-07T06:22:28;16.48;;;12.02;;
69463;SDS011;56665;41.106;16.688;2023-05-07T06:25:32;18.30;;;12.85;;
69463;SDS011;56665;41.106;16.688;2023-05-07T06:28:36;21.17;;;14.75;;
69463;SDS011;56665;41.106;16.688;2023-05-07T06:31:41;21.95;;;14.68;;
69463;SDS011;56665;41.106;16.688;2023-05-07T06:34:46;23.45;;;15.85;;
69463;SDS011;56665;41.106;16.688;2023-05-07T06:37:51;23.13;;;15.40;;
69463;SDS011;56665;41.106;16.688;2023-05-07T06:41:00;25.52;;;17.67;;
69463;SDS011;56665;41.106;16.688;2023-05-07T06:44:04;26.38;;;16.98;;
69463;SDS011;56665;41.106;16.688;2023-05-07T06:47:15;24.83;;;17.52;;
69463;SDS011;56665;41.106;16.688;2023-05-07T06:50:21;25.55;;;16.27;;
69463;SDS011;56665;41.106;16.688;2023-05-07T06:53:26;19.52;;;14.20;;
69463;SDS011;56665;41.106;16.688;2023-05-07T06:56:31;17.43;;;12.17;;
69463;SDS011;56665;41.106;16.688;2023-05-07T06:59:37;17.17;;;11.10;;
69463;SDS011;56665;41.106;16.688;2023-05-07T07:02:41;15.23;;;10.93;;
69463;SDS011;56665;41.106;16.688;2023-05-07T07:05:46;19.48;;;12.18;;
69463;SDS011;56665;41.106;16.688;2023-05-07T07:08:50;16.00;;;12.10;;
69463;SDS011;56665;41.106;16.688;2023-05-07T07:11:55;19.20;;;12.60;;
69463;SDS011;56665;41.106;16.688;2023-05-07T07:14:59;15.48;;;11.50;;
69463;SDS011;56665;41.106;16.688;2023-05-07T07:18:04;16.20;;;11.07;;
69463;SDS011;56665;41.106;16.688;2023-05-07T07:21:08;12.02;;;9.27;;
69463;SDS011;56665;41.106;16.688;2023-05-07T07:24:13;12.25;;;7.82;;
69463;SDS011;56665;41.106;16.688;2023-05-07T07:27:23;15.10;;;8.85;;
69463;SDS011;56665;41.106;16.688;2023-05-07T07:30:27;14.02;;;9.10;;
69463;SDS011;56665;41.106;16.688;2023-05-07T07:33:32;13.38;;;8.40;;
69463;SDS011;56665;41.106;16.688;2023-05-07T07:36:37;14.82;;;8.70;;
69463;SDS011;56665;41.106;16.688;2023-05-07T07:39:40;12.48;;;8.32;;
69463;SDS011;56665;41.106;16.688;2023-05-07T07:42:46;10.88;;;7.95;;
69463;SDS011;56665;41.106;16.688;2023-05-07T07:45:53;11.70;;;8.40;;
69463;SDS011;56665;41.106;16.688;2023-05-07T07:48:59;10.32;;;8.35;;
69463;SDS011;56665;41.106;16.688;2023-05-07T07:52:05;10.23;;;7.70;;
69463;SDS011;56665;41.106;16.688;2023-05-07T07:55:13;12.57;;;9.40;;
69463;SDS011;56665;41.106;16.688;2023-05-07T07:58:18;10.48;;;8.27;;
69463;SDS011;56665;41.106;16.688;2023-05-07T08:01:24;11.57;;;9.13;;
69463;SDS011;56665;41.106;16.688;2023-05-07T08:04:28;10.27;;;7.70;;
69463;SDS011;56665;41.106;16.688;2023-05-07T08:07:33;16.42;;;10.75;;
69463;SDS011;56665;41.106;16.688;2023-05-07T08:10:40;14.05;;;10.80;;
69463;SDS011;56665;41.106;16.688;2023-05-07T08:13:55;15.30;;;10.30;;
69463;SDS011;56665;41.106;16.688;2023-05-07T08:17:01;11.18;;;7.93;;
69463;SDS011;56665;41.106;16.688;2023-05-07T08:20:05;11.95;;;7.60;;
69463;SDS011;56665;41.106;16.688;2023-05-07T08:23:11;11.05;;;8.25;;
69463;SDS011;56665;41.106;16.688;2023-05-07T08:26:19;9.43;;;7.53;;
69463;SDS011;56665;41.106;16.688;2023-05-07T08:29:24;9.32;;;6.68;;
69463;SDS011;56665;41.106;16.688;2023-05-07T08:32:29;9.00;;;6.35;;
69463;SDS011;56665;41.106;16.688;2023-05-07T08:35:33;9.57;;;6.68;;
69463;SDS011;56665;41.106;16.688;2023-05-07T08:38:37;9.15;;;6.47;;
69463;SDS011;56665;41.106;16.688;2023-05-07T08:41:41;10.07;;;6.20;;
69463;SDS011;56665;41.106;16.688;2023-05-07T08:44:52;8.57;;;6.20;;
69463;SDS011;56665;41.106;16.688;2023-05-07T08:48:02;6.80;;;5.57;;
69463;SDS011;56665;41.106;16.688;2023-05-07T08:51:15;7.32;;;5.38;;
69463;SDS011;56665;41.106;16.688;2023-05-07T08:54:21;6.43;;;5.43;;
69463;SDS011;56665;41.106;16.688;2023-05-07T08:57:25;7.60;;;6.32;;
69463;SDS011;56665;41.106;16.688;2023-05-07T09:00:30;7.47;;;5.60;;
69463;SDS011;56665;41.106;16.688;2023-05-07T09:03:37;8.38;;;5.80;;
69463;SDS011;56665;41.106;16.688;2023-05-07T09:06:43;7.72;;;5.72;;
69463;SDS011;56665;41.106;16.688;2023-05-07T09:09:49;7.28;;;5.80;;
69463;SDS011;56665;41.106;16.688;2023-05-07T09:12:52;8.73;;;5.60;;
69463;SDS011;56665;41.106;16.688;2023-05-07T09:15:57;7.18;;;5.35;;
69463;SDS011;56665;41.106;16.688;2023-05-07T09:19:03;7.18;;;5.38;;
69463;SDS011;56665;41.106;16.688;2023-05-07T09:22:07;6.68;;;5.57;;
69463;SDS011;56665;41.106;16.688;2023-05-07T09:25:29;7.63;;;5.93;;
69463;SDS011;56665;41.106;16.688;2023-05-07T09:28:37;8.05;;;5.55;;
69463;SDS011;56665;41.106;16.688;2023-05-07T09:31:42;6.60;;;5.07;;
69463;SDS011;56665;41.106;16.688;2023-05-07T09:34:50;8.50;;;5.00;;
69463;SDS011;56665;41.106;16.688;2023-05-07T09:37:59;8.35;;;5.03;;
69463;SDS011;56665;41.106;16.688;2023-05-07T09:41:06;9.25;;;4.80;;
69463;SDS011;56665;41.106;16.688;2023-05-07T09:44:14;8.48;;;5.63;;
69463;SDS011;56665;41.106;16.688;2023-05-07T09:47:23;9.23;;;6.37;;
69463;SDS011;56665;41.106;16.688;2023-05-07T09:50:44;7.30;;;5.80;;
69463;SDS011;56665;41.106;16.688;2023-05-07T09:54:01;7.00;;;4.80;;
69463;SDS011;56665;41.106;16.688;2023-05-07T09:57:09;9.55;;;4.65;;
69463;SDS011;56665;41.106;16.688;2023-05-07T10:00:17;8.10;;;4.43;;
69463;SDS011;56665;41.106;16.688;2023-05-07T10:03:25;7.30;;;5.30;;
69463;SDS011;56665;41.106;16.688;2023-05-07T10:06:38;5.95;;;3.90;;
69463;SDS011;56665;41.106;16.688;2023-05-07T10:09:44;4.95;;;4.20;;
69463;SDS011;56665;41.106;16.688;2023-05-07T10:12:58;6.22;;;4.53;;
69463;SDS011;56665;41.106;16.688;2023-05-07T10:16:11;5.55;;;4.28;;
69463;SDS011;56665;41.106;16.688;2023-05-07T10:19:23;6.68;;;4.65;;
69463;SDS011;56665;41.106;16.688;2023-05-07T10:22:31;7.85;;;5.03;;
69463;SDS011;56665;41.106;16.688;2023-05-07T10:26:02;5.68;;;4.50;;
69463;SDS011;56665;41.106;16.688;2023-05-07T10:32:38;7.30;;;4.70;;
69463;SDS011;56665;41.106;16.688;2023-05-07T10:35:51;6.20;;;4.30;;
69463;SDS011;56665;41.106;16.688;2023-05-07T10:38:58;5.72;;;3.78;;
69463;SDS011;56665;41.106;16.688;2023-05-07T10:42:10;4.80;;;3.92;;
69463;SDS011;56665;41.106;16.688;2023-05-07T10:45:17;4.88;;;3.50;;
69463;SDS011;56665;41.106;16.688;2023-05-07T10:48:25;9.45;;;6.10;;
69463;SDS011;56665;41.106;16.688;2023-05-07T10:51:34;6.60;;;4.73;;
69463;SDS011;56665;41.106;16.688;2023-05-07T10:54:46;6.53;;;4.47;;
69463;SDS011;56665;41.106;16.688;2023-05-07T10:57:52;9.20;;;4.07;;
69463;SDS011;56665;41.106;16.688;2023-05-07T11:01:02;5.65;;;4.35;;
69463;SDS011;56665;41.106;16.688;2023-05-07T11:04:15;5.47;;;3.95;;
69463;SDS011;56665;41.106;16.688;2023-05-07T11:07:41;6.72;;;4.20;;
69463;SDS011;56665;41.106;16.688;2023-05-07T11:11:15;6.32;;;3.88;;
69463;SDS011;56665;41.106;16.688;2023-05-07T11:17:55;9.52;;;5.47;;
69463;SDS011;56665;41.106;16.688;2023-05-07T11:21:07;6.55;;;4.25;;
69463;SDS011;56665;41.106;16.688;2023-05-07T11:24:25;4.30;;;3.58;;
69463;SDS011;56665;41.106;16.688;2023-05-07T11:27:41;6.68;;;4.20;;
69463;SDS011;56665;41.106;16.688;2023-05-07T11:30:45;9.18;;;4.50;;
69463;SDS011;56665;41.106;16.688;2023-05-07T11:33:53;8.20;;;4.75;;
69463;SDS011;56665;41.106;16.688;2023-05-07T11:37:00;7.13;;;3.80;;
69463;SDS011;56665;41.106;16.688;2023-05-07T11:40:23;6.70;;;4.53;;
69463;SDS011;56665;41.106;16.688;2023-05-07T11:43:29;6.72;;;3.78;;
69463;SDS011;56665;41.106;16.688;2023-05-07T11:46:35;6.43;;;4.10;;
69463;SDS011;56665;41.106;16.688;2023-05-07T11:49:39;4.93;;;3.50;;
69463;SDS011;56665;41.106;16.688;2023-05-07T11:52:50;4.78;;;3.60;;
69463;SDS011;56665;41.106;16.688;2023-05-07T11:55:55;4.03;;;2.80;;
69463;SDS011;56665;41.106;16.688;2023-05-07T11:59:00;4.95;;;3.08;;
69463;SDS011;56665;41.106;16.688;2023-05-07T12:02:04;4.88;;;3.42;;
69463;SDS011;56665;41.106;16.688;2023-05-07T12:05:08;5.68;;;3.80;;
69463;SDS011;56665;41.106;16.688;2023-05-07T12:08:13;5.03;;;3.33;;
69463;SDS011;56665;41.106;16.688;2023-05-07T12:11:22;5.70;;;3.47;;
69463;SDS011;56665;41.106;16.688;2023-05-07T12:14:28;6.93;;;4.43;;
69463;SDS011;56665;41.106;16.688;2023-05-07T12:17:33;8.80;;;6.50;;
69463;SDS011;56665;41.106;16.688;2023-05-07T12:20:38;6.95;;;4.78;;
69463;SDS011;56665;41.106;16.688;2023-05-07T12:23:43;5.43;;;3.95;;
69463;SDS011;56665;41.106;16.688;2023-05-07T12:26:48;6.45;;;3.33;;
69463;SDS011;56665;41.106;16.688;2023-05-07T12:29:52;5.32;;;3.30;;
69463;SDS011;56665;41.106;16.688;2023-05-07T12:32:57;4.10;;;3.25;;
69463;SDS011;56665;41.106;16.688;2023-05-07T12:36:05;4.68;;;2.92;;
69463;SDS011;56665;41.106;16.688;2023-05-07T12:39:11;6.13;;;2.88;;
69463;SDS011;56665;41.106;16.688;2023-05-07T12:42:15;3.95;;;2.97;;
69463;SDS011;56665;41.106;16.688;2023-05-07T12:45:24;4.22;;;3.15;;
69463;SDS011;56665;41.106;16.688;2023-05-07T12:48:29;4.30;;;2.90;;
69463;SDS011;56665;41.106;16.688;2023-05-07T12:51:34;5.03;;;3.63;;
69463;SDS011;56665;41.106;16.688;2023-05-07T12:54:41;4.47;;;3.45;;
69463;SDS011;56665;41.106;16.688;2023-05-07T12:57:47;4.87;;;3.40;;
69463;SDS011;56665;41.106;16.688;2023-05-07T13:00:52;5.88;;;4.32;;
69463;SDS011;56665;41.106;16.688;2023-05-07T13:04:00;6.40;;;3.78;;
69463;SDS011;56665;41.106;16.688;2023-05-07T13:07:04;5.38;;;3.70;;
69463;SDS011;56665;41.106;16.688;2023-05-07T13:10:09;5.72;;;4.38;;
69463;SDS011;56665;41.106;16.688;2023-05-07T13:13:12;5.47;;;4.03;;
69463;SDS011;56665;41.106;16.688;2023-05-07T13:16:18;5.63;;;3.92;;
69463;SDS011;56665;41.106;16.688;2023-05-07T13:19:24;5.90;;;3.53;;
69463;SDS011;56665;41.106;16.688;2023-05-07T13:22:27;5.60;;;4.10;;
69463;SDS011;56665;41.106;16.688;2023-05-07T13:25:35;8.95;;;6.03;;
69463;SDS011;56665;41.106;16.688;2023-05-07T13:28:38;8.73;;;5.82;;
69463;SDS011;56665;41.106;16.688;2023-05-07T13:31:43;13.52;;;9.75;;
69463;SDS011;56665;41.106;16.688;2023-05-07T13:34:48;8.95;;;6.20;;
69463;SDS011;56665;41.106;16.688;2023-05-07T13:37:53;7.57;;;4.78;;
69463;SDS011;56665;41.106;16.688;2023-05-07T13:40:58;8.45;;;4.47;;
69463;SDS011;56665;41.106;16.688;2023-05-07T13:44:02;6.57;;;4.13;;
69463;SDS011;56665;41.106;16.688;2023-05-07T13:47:06;6.88;;;4.72;;
69463;SDS011;56665;41.106;16.688;2023-05-07T13:50:10;6.25;;;4.68;;
69463;SDS011;56665;41.106;16.688;2023-05-07T13:53:18;10.07;;;4.40;;
69463;SDS011;56665;41.106;16.688;2023-05-07T13:56:22;5.30;;;3.80;;
69463;SDS011;56665;41.106;16.688;2023-05-07T13:59:27;4.80;;;3.72;;
69463;SDS011;56665;41.106;16.688;2023-05-07T14:02:31;6.00;;;4.05;;
69463;SDS011;56665;41.106;16.688;2023-05-07T14:05:35;8.52;;;4.05;;
69463;SDS011;56665;41.106;16.688;2023-05-07T14:08:38;6.45;;;4.20;;
69463;SDS011;56665;41.106;16.688;2023-05-07T14:11:43;5.10;;;3.85;;
69463;SDS011;56665;41.106;16.688;2023-05-07T14:14:49;5.18;;;4.03;;
69463;SDS011;56665;41.106;16.688;2023-05-07T14:17:52;5.30;;;4.10;;
69463;SDS011;56665;41.106;16.688;2023-05-07T14:20:56;5.72;;;4.05;;
69463;SDS011;56665;41.106;16.688;2023-05-07T14:24:00;4.97;;;3.97;;
69463;SDS011;56665;41.106;16.688;2023-05-07T14:27:05;5.88;;;4.03;;
69463;SDS011;56665;41.106;16.688;2023-05-07T14:30:09;6.55;;;4.15;;
69463;SDS011;56665;41.106;16.688;2023-05-07T14:33:14;5.40;;;3.83;;
69463;SDS011;56665;41.106;16.688;2023-05-07T14:36:18;6.32;;;4.18;;
69463;SDS011;56665;41.106;16.688;2023-05-07T14:39:30;5.32;;;4.18;;
69463;SDS011;56665;41.106;16.688;2023-05-07T14:42:33;7.15;;;4.35;;
69463;SDS011;56665;41.106;16.688;2023-05-07T14:45:37;5.60;;;3.93;;
69463;SDS011;56665;41.106;16.688;2023-05-07T14:48:41;7.05;;;4.38;;
69463;SDS011;56665;41.106;16.688;2023-05-07T14:51:49;7.18;;;4.63;;
69463;SDS011;56665;41.106;16.688;2023-05-07T14:54:54;7.82;;;4.20;;
69463;SDS011;56665;41.106;16.688;2023-05-07T14:57:57;7.15;;;4.70;;
69463;SDS011;56665;41.106;16.688;2023-05-07T15:01:02;5.13;;;4.03;;
69463;SDS011;56665;41.106;16.688;2023-05-07T15:04:06;7.03;;;4.35;;
69463;SDS011;56665;41.106;16.688;2023-05-07T15:07:10;7.03;;;4.45;;
69463;SDS011;56665;41.106;16.688;2023-05-07T15:10:14;6.50;;;4.45;;
69463;SDS011;56665;41.106;16.688;2023-05-07T15:13:18;7.70;;;4.38;;
69463;SDS011;56665;41.106;16.688;2023-05-07T15:16:22;6.43;;;4.82;;
69463;SDS011;56665;41.106;16.688;2023-05-07T15:19:27;7.45;;;4.85;;
69463;SDS011;56665;41.106;16.688;2023-05-07T15:22:34;6.53;;;4.85;;
69463;SDS011;56665;41.106;16.688;2023-05-07T15:25:40;9.18;;;5.78;;
69463;SDS011;56665;41.106;16.688;2023-05-07T15:28:43;6.82;;;4.85;;
69463;SDS011;56665;41.106;16.688;2023-05-07T15:31:47;6.70;;;4.80;;
69463;SDS011;56665;41.106;16.688;2023-05-07T15:34:51;6.10;;;5.10;;
69463;SDS011;56665;41.106;16.688;2023-05-07T15:37:56;6.53;;;5.18;;
69463;SDS011;56665;41.106;16.688;2023-05-07T15:41:00;8.15;;;5.18;;
69463;SDS011;56665;41.106;16.688;2023-05-07T15:44:04;8.65;;;5.30;;
69463;SDS011;56665;41.106;16.688;2023-05-07T15:47:08;7.00;;;4.60;;
69463;SDS011;56665;41.106;16.688;2023-05-07T15:50:11;7.28;;;4.88;;
69463;SDS011;56665;41.106;16.688;2023-05-07T15:53:16;7.18;;;5.13;;
69463;SDS011;56665;41.106;16.688;2023-05-07T15:56:20;7.97;;;5.13;;
69463;SDS011;56665;41.106;16.688;2023-05-07T15:59:28;7.47;;;5.30;;
69463;SDS011;56665;41.106;16.688;2023-05-07T16:02:32;7.50;;;5.40;;
69463;SDS011;56665;41.106;16.688;2023-05-07T16:05:35;7.40;;;4.88;;
69463;SDS011;56665;41.106;16.688;2023-05-07T16:08:40;8.18;;;5.32;;
69463;SDS011;56665;41.106;16.688;2023-05-07T16:11:44;7.05;;;5.00;;
69463;SDS011;56665;41.106;16.688;2023-05-07T16:14:49;9.73;;;5.72;;
69463;SDS011;56665;41.106;16.688;2023-05-07T16:17:54;7.57;;;4.82;;
69463;SDS011;56665;41.106;16.688;2023-05-07T16:21:02;6.57;;;5.35;;
69463;SDS011;56665;41.106;16.688;2023-05-07T16:24:06;7.05;;;5.20;;
69463;SDS011;56665;41.106;16.688;2023-05-07T16:27:10;6.45;;;4.68;;
69463;SDS011;56665;41.106;16.688;2023-05-07T16:30:14;7.25;;;4.55;;
69463;SDS011;56665;41.106;16.688;2023-05-07T16:33:19;5.80;;;4.20;;
69463;SDS011;56665;41.106;16.688;2023-05-07T16:36:27;5.43;;;4.07;;
69463;SDS011;56665;41.106;16.688;2023-05-07T16:39:32;6.68;;;4.40;;
69463;SDS011;56665;41.106;16.688;2023-05-07T16:42:36;6.53;;;4.47;;
69463;SDS011;56665;41.106;16.688;2023-05-07T16:45:40;6.97;;;4.47;;
69463;SDS011;56665;41.106;16.688;2023-05-07T16:48:44;7.50;;;4.60;;
69463;SDS011;56665;41.106;16.688;2023-05-07T16:51:47;7.35;;;4.25;;
69463;SDS011;56665;41.106;16.688;2023-05-07T16:54:51;6.32;;;4.10;;
69463;SDS011;56665;41.106;16.688;2023-05-07T16:58:00;5.43;;;4.10;;
69463;SDS011;56665;41.106;16.688;2023-05-07T17:01:04;8.48;;;4.53;;
69463;SDS011;56665;41.106;16.688;2023-05-07T17:04:09;6.77;;;4.30;;
69463;SDS011;56665;41.106;16.688;2023-05-07T17:07:13;6.47;;;4.65;;
69463;SDS011;56665;41.106;16.688;2023-05-07T17:10:18;7.43;;;4.82;;
69463;SDS011;56665;41.106;16.688;2023-05-07T17:13:23;7.43;;;4.13;;
69463;SDS011;56665;41.106;16.688;2023-05-07T17:16:27;6.70;;;4.50;;
69463;SDS011;56665;41.106;16.688;2023-05-07T17:19:31;8.73;;;4.13;;
69463;SDS011;56665;41.106;16.688;2023-05-07T17:22:36;6.97;;;4.20;;
69463;SDS011;56665;41.106;16.688;2023-05-07T17:25:40;5.07;;;4.00;;
69463;SDS011;56665;41.106;16.688;2023-05-07T17:28:47;6.18;;;4.22;;
69463;SDS011;56665;41.106;16.688;2023-05-07T17:31:51;6.40;;;4.32;;
69463;SDS011;56665;41.106;16.688;2023-05-07T17:34:55;6.10;;;4.40;;
69463;SDS011;56665;41.106;16.688;2023-05-07T17:37:59;6.13;;;4.15;;
69463;SDS011;56665;41.106;16.688;2023-05-07T17:41:03;6.55;;;4.30;;
69463;SDS011;56665;41.106;16.688;2023-05-07T17:44:07;5.95;;;4.10;;
69463;SDS011;56665;41.106;16.688;2023-05-07T17:47:13;7.95;;;4.30;;
69463;SDS011;56665;41.106;16.688;2023-05-07T17:50:18;5.80;;;4.20;;
69463;SDS011;56665;41.106;16.688;2023-05-07T17:53:23;7.07;;;4.70;;
69463;SDS011;56665;41.106;16.688;2023-05-07T17:56:29;10.80;;;6.07;;
69463;SDS011;56665;41.106;16.688;2023-05-07T17:59:33;102.45;;;70.10;;
69463;SDS011;56665;41.106;16.688;2023-05-07T18:02:38;33.08;;;25.23;;
69463;SDS011;56665;41.106;16.688;2023-05-07T18:05:43;15.60;;;11.13;;
69463;SDS011;56665;41.106;16.688;2023-05-07T18:08:47;10.75;;;6.72;;
69463;SDS011;56665;41.106;16.688;2023-05-07T18:11:51;9.18;;;6.70;;
69463;SDS011;56665;41.106;16.688;2023-05-07T18:14:55;7.28;;;5.35;;
69463;SDS011;56665;41.106;16.688;2023-05-07T18:17:59;8.80;;;5.30;;
69463;SDS011;56665;41.106;16.688;2023-05-07T18:21:03;8.07;;;4.90;;
69463;SDS011;56665;41.106;16.688;2023-05-07T18:24:07;6.50;;;5.00;;